ADDS METAR Data INFO
IDs: Format: Raw Decoded Include TAF

Data at: 1245 UTC 19 Oct 2017

KWVL 191241Z AUTO 21005KT 2SM BR BKN001 08/08 A3013 RMK AO2
KWVL 191228Z AUTO 22005KT 1SM BR BKN001 08/08 A3014 RMK AO2 VIS 3/4V2
KWVL 191223Z AUTO 22004KT 1 3/4SM BR SCT001 08/07 A3014 RMK AO2
KWVL 191208Z AUTO 23004KT 4SM BR FEW001 07/07 A3014 RMK AO2
KWVL 191156Z AUTO 20004KT 4SM BR CLR 07/06 A3014 RMK AO2 SLP235 T00670061 10072 20044 57009
KWVL 191056Z AUTO 21004KT 5SM BR CLR 06/06 A3014 RMK AO2 SLP237 T00560056
KWVL 190956Z AUTO 22003KT 7SM CLR 06/06 A3016 RMK AO2 SLP241 T00560056
KWVL 190856Z AUTO 20003KT 10SM CLR 07/06 A3016 RMK AO2 SLP242 T00670061 55008
KWVL 190756Z AUTO 21003KT 10SM CLR 06/06 A3016 RMK AO2 SLP242 T00610056
KWVL 190656Z AUTO 21004KT 10SM CLR 07/06 A3018 RMK AO2 SLP246 T00720061
KWVL 190556Z AUTO 20003KT 10SM CLR 08/06 A3019 RMK AO2 SLP249 T00780061 10100 20067 58005
KWVL 190456Z AUTO 00000KT 10SM CLR 07/06 A3019 RMK AO2 SLP253 T00670056
KWVL 190356Z AUTO 21003KT 10SM CLR 08/05 A3020 RMK AO2 SLP254 T00830050 402000039
KWVL 190256Z AUTO 23003KT 10SM CLR 09/04 A3020 RMK AO2 SLP255 T00940044 50004
KWVL 190156Z AUTO 22003KT 10SM CLR 10/04 A3021 RMK AO2 SLP257 T01000039
KWVL 190056Z AUTO 00000KT 10SM CLR 09/04 A3020 RMK AO2 SLP255 T00940039
KWVL 182356Z AUTO 00000KT 10SM CLR 10/03 A3019 RMK AO2 SLP252 T01000033 10200 20094 51017
KWVL 182256Z AUTO 00000KT 9SM CLR 11/03 A3018 RMK AO2 SLP249 T01110033
KWVL 182156Z AUTO 27005KT 10SM CLR 15/03 A3016 RMK AO2 SLP242 T01500033
KWVL 182056Z AUTO 00000KT 10SM CLR 19/02 A3014 RMK AO2 SLP234 T01890017 53005
KWVL 181956Z AUTO 30008G14KT 10SM CLR 20/02 A3014 RMK AO2 SLP232 T02000017
KWVL 181856Z AUTO 27007G14KT 220V310 10SM CLR 20/02 A3013 RMK AO2 SLP228 T02000017
KWVL 181756Z AUTO 28007KT 10SM CLR 19/02 A3013 RMK AO2 SLP229 T01940022 10194 20039 58009
KWVL 181656Z AUTO 31009KT 10SM CLR 19/04 A3014 RMK AO2 SLP232 T01890044
KWVL 181556Z AUTO VRB06KT 10SM CLR 17/07 A3015 RMK AO2 SLP236 T01720067
KWVL 181456Z AUTO 23009G15KT 10SM CLR 16/06 A3015 RMK AO2 SLP238 T01610061 50013
KWVL 181356Z AUTO VRB06KT 10SM CLR 14/06 A3015 RMK AO2 SLP239 T01390061
KWVL 181256Z AUTO VRB03KT 10SM CLR 08/03 A3013 RMK AO2 SLP233 T00830028
KWVL 181156Z AUTO 21005KT 10SM CLR 04/01 A3011 RMK AO2 SLP227 T00390011 10078 20039 53016
KWVL 181056Z AUTO 22005KT 10SM CLR 04/01 A3009 RMK AO2 SLP220 T00390011
KWVL 180956Z AUTO 19004KT 10SM CLR 05/01 A3008 RMK AO2 SLP215 T00500011
KWVL 180856Z AUTO 00000KT 10SM CLR 06/01 A3006 RMK AO2 SLP210 T00560011 55000
KWVL 180756Z AUTO 22003KT 10SM BKN090 06/02 A3006 RMK AO2 SLP206 T00610017
KWVL 180656Z AUTO 20003KT 10SM FEW095 07/02 A3006 RMK AO2 SLP205 T00720017
KWVL 180556Z AUTO 19003KT 10SM BKN110 07/02 A3007 RMK AO2 SLP209 T00720017 10072 20061 57016
KWVL 180456Z AUTO 20003KT 10SM OVC100 07/02 A3008 RMK AO2 SLP215 T00720017
KWVL 180356Z AUTO 20003KT 10SM BKN110 06/02 A3010 RMK AO2 SLP222 T00610022 401221022
KWVL 180256Z AUTO VRB03KT 10SM BKN090 OVC110 07/02 A3011 RMK AO2 SLP226 T00720022 50000
KWVL 180156Z AUTO 20003KT 10SM BKN100 07/03 A3012 RMK AO2 SLP228 T00670028
KWVL 180056Z AUTO 19005KT 10SM CLR 07/03 A3011 RMK AO2 SLP228 T00670028